sensor_id;sensor_type;location;lat;lon;timestamp;pressure;altitude;pressure_sealevel;temperature;humidity
76331;BME280;65148;51.912;15.570;2022-12-18T00:07:48;103175.63;;;-2.64;90.73
76331;BME280;65148;51.912;15.570;2022-12-18T00:22:49;103194.27;;;-2.92;92.04
76331;BME280;65148;51.912;15.570;2022-12-18T00:37:50;103201.71;;;-2.67;90.84
76331;BME280;65148;51.912;15.570;2022-12-18T00:53:16;103231.47;;;-2.81;91.77
76331;BME280;65148;51.912;15.570;2022-12-18T01:08:17;103240.87;;;-2.58;91.43
76331;BME280;65148;51.912;15.570;2022-12-18T01:23:18;103255.09;;;-2.38;90.86
76331;BME280;65148;51.912;15.570;2022-12-18T01:38:19;103251.15;;;-2.34;90.17
76331;BME280;65148;51.912;15.570;2022-12-18T01:53:46;103264.02;;;-2.68;90.58
76331;BME280;65148;51.912;15.570;2022-12-18T02:09:36;103262.91;;;-2.56;90.52
76331;BME280;65148;51.912;15.570;2022-12-18T02:39:32;103269.66;;;-2.62;89.62
76331;BME280;65148;51.912;15.570;2022-12-18T03:09:48;103274.57;;;-2.38;88.58
76331;BME280;65148;51.912;15.570;2022-12-18T03:25:14;103273.90;;;-2.40;87.12
76331;BME280;65148;51.912;15.570;2022-12-18T03:40:16;103291.55;;;-2.48;87.50
76331;BME280;65148;51.912;15.570;2022-12-18T03:55:19;103303.92;;;-2.38;87.21
76331;BME280;65148;51.912;15.570;2022-12-18T04:10:22;103323.09;;;-2.73;87.62
76331;BME280;65148;51.912;15.570;2022-12-18T04:25:41;103335.88;;;-2.67;88.09
76331;BME280;65148;51.912;15.570;2022-12-18T04:40:43;103348.06;;;-2.74;88.16
76331;BME280;65148;51.912;15.570;2022-12-18T04:55:44;103356.94;;;-2.64;88.03
76331;BME280;65148;51.912;15.570;2022-12-18T05:10:45;103375.50;;;-2.52;87.71
76331;BME280;65148;51.912;15.570;2022-12-18T05:26:17;103396.18;;;-3.06;88.20
76331;BME280;65148;51.912;15.570;2022-12-18T05:41:18;103420.33;;;-2.98;87.94
76331;BME280;65148;51.912;15.570;2022-12-18T05:56:21;103433.20;;;-2.82;87.02
76331;BME280;65148;51.912;15.570;2022-12-18T06:11:25;103418.98;;;-2.92;87.66
76331;BME280;65148;51.912;15.570;2022-12-18T06:26:42;103447.64;;;-3.05;87.69
76331;BME280;65148;51.912;15.570;2022-12-18T06:41:43;103441.84;;;-3.31;88.23
76331;BME280;65148;51.912;15.570;2022-12-18T06:56:45;103475.70;;;-3.22;88.38
76331;BME280;65148;51.912;15.570;2022-12-18T07:11:46;103498.17;;;-3.36;88.78
76331;BME280;65148;51.912;15.570;2022-12-18T07:27:10;103519.88;;;-3.51;88.51
76331;BME280;65148;51.912;15.570;2022-12-18T07:42:11;103531.42;;;-3.30;88.73
76331;BME280;65148;51.912;15.570;2022-12-18T07:57:25;103541.10;;;-3.61;89.39
76331;BME280;65148;51.912;15.570;2022-12-18T08:12:54;103550.80;;;-3.71;89.98
76331;BME280;65148;51.912;15.570;2022-12-18T08:27:55;103549.68;;;-3.57;90.03
76331;BME280;65148;51.912;15.570;2022-12-18T08:42:57;103543.93;;;-3.42;89.55
76331;BME280;65148;51.912;15.570;2022-12-18T08:58:38;103543.57;;;-3.37;88.61
76331;BME280;65148;51.912;15.570;2022-12-18T09:13:39;103543.30;;;-3.34;88.16
76331;BME280;65148;51.912;15.570;2022-12-18T09:28:40;103545.35;;;-3.26;88.84
76331;BME280;65148;51.912;15.570;2022-12-18T09:43:50;103542.60;;;-3.36;88.75
76331;BME280;65148;51.912;15.570;2022-12-18T09:59:18;103562.88;;;-3.24;88.49
76331;BME280;65148;51.912;15.570;2022-12-18T10:29:33;103536.35;;;-3.14;87.13
76331;BME280;65148;51.912;15.570;2022-12-18T10:45:05;103536.30;;;-3.03;86.96
76331;BME280;65148;51.912;15.570;2022-12-18T11:15:27;103520.94;;;-2.69;85.24
76331;BME280;65148;51.912;15.570;2022-12-18T11:30:43;103518.21;;;-2.79;84.99
76331;BME280;65148;51.912;15.570;2022-12-18T11:45:52;103521.78;;;-2.69;83.98
76331;BME280;65148;51.912;15.570;2022-12-18T12:01:05;103500.73;;;-2.72;84.55
76331;BME280;65148;51.912;15.570;2022-12-18T12:16:37;103495.85;;;-2.87;84.23
76331;BME280;65148;51.912;15.570;2022-12-18T12:46:59;103494.09;;;-2.77;82.80
76331;BME280;65148;51.912;15.570;2022-12-18T13:17:29;103528.15;;;-3.02;80.87
76331;BME280;65148;51.912;15.570;2022-12-18T13:32:31;103551.74;;;-2.97;81.59
76331;BME280;65148;51.912;15.570;2022-12-18T13:48:00;103551.32;;;-2.81;80.47
76331;BME280;65148;51.912;15.570;2022-12-18T14:03:01;103541.70;;;-2.93;80.73
76331;BME280;65148;51.912;15.570;2022-12-18T14:32:32;103531.58;;;-3.11;80.30
76331;BME280;65148;51.912;15.570;2022-12-18T14:47:33;103527.23;;;-3.44;80.34
76331;BME280;65148;51.912;15.570;2022-12-18T15:02:35;103522.85;;;-3.88;81.39
76331;BME280;65148;51.912;15.570;2022-12-18T15:18:13;103500.41;;;-4.39;81.15
76331;BME280;65148;51.912;15.570;2022-12-18T15:33:26;103480.36;;;-4.55;83.87
76331;BME280;65148;51.912;15.570;2022-12-18T15:48:27;103447.35;;;-4.41;84.70
76331;BME280;65148;51.912;15.570;2022-12-18T16:03:50;103445.19;;;-4.36;84.77
76331;BME280;65148;51.912;15.570;2022-12-18T16:18:50;103462.34;;;-4.40;84.44
76331;BME280;65148;51.912;15.570;2022-12-18T16:49:03;103499.12;;;-5.02;84.05
76331;BME280;65148;51.912;15.570;2022-12-18T17:04:23;103502.84;;;-5.05;85.37
76331;BME280;65148;51.912;15.570;2022-12-18T17:19:25;103483.66;;;-4.97;84.80
76331;BME280;65148;51.912;15.570;2022-12-18T17:34:27;103479.05;;;-5.06;85.11
76331;BME280;65148;51.912;15.570;2022-12-18T17:49:28;103455.12;;;-5.18;85.38
76331;BME280;65148;51.912;15.570;2022-12-18T18:04:56;103449.56;;;-5.26;85.38
76331;BME280;65148;51.912;15.570;2022-12-18T18:19:57;103443.62;;;-5.29;85.34
76331;BME280;65148;51.912;15.570;2022-12-18T18:34:58;103446.09;;;-5.50;86.15
76331;BME280;65148;51.912;15.570;2022-12-18T18:49:59;103461.65;;;-5.57;86.24
76331;BME280;65148;51.912;15.570;2022-12-18T19:05:30;103441.21;;;-5.67;86.28
76331;BME280;65148;51.912;15.570;2022-12-18T19:20:31;103446.78;;;-5.59;86.79
76331;BME280;65148;51.912;15.570;2022-12-18T19:35:32;103449.00;;;-5.53;87.23
76331;BME280;65148;51.912;15.570;2022-12-18T19:50:34;103434.98;;;-5.55;88.63
76331;BME280;65148;51.912;15.570;2022-12-18T20:06:09;103430.95;;;-5.37;88.44
76331;BME280;65148;51.912;15.570;2022-12-18T20:21:11;103448.70;;;-5.26;88.28
76331;BME280;65148;51.912;15.570;2022-12-18T20:36:16;103404.10;;;-5.10;87.81
76331;BME280;65148;51.912;15.570;2022-12-18T20:51:44;103383.41;;;-5.29;87.78
76331;BME280;65148;51.912;15.570;2022-12-18T21:06:49;103362.56;;;-5.22;87.17
76331;BME280;65148;51.912;15.570;2022-12-18T21:21:51;103340.82;;;-5.27;86.89
76331;BME280;65148;51.912;15.570;2022-12-18T21:36:54;103335.51;;;-5.27;86.67
76331;BME280;65148;51.912;15.570;2022-12-18T21:52:15;103309.44;;;-5.44;86.64
76331;BME280;65148;51.912;15.570;2022-12-18T22:07:16;103273.98;;;-5.21;86.47
76331;BME280;65148;51.912;15.570;2022-12-18T22:22:17;103282.80;;;-5.21;86.42
76331;BME280;65148;51.912;15.570;2022-12-18T22:37:18;103260.22;;;-5.15;85.94
76331;BME280;65148;51.912;15.570;2022-12-18T22:52:46;103252.64;;;-5.20;86.05
76331;BME280;65148;51.912;15.570;2022-12-18T23:07:47;103248.87;;;-5.17;86.12
76331;BME280;65148;51.912;15.570;2022-12-18T23:22:48;103212.80;;;-5.08;86.05
76331;BME280;65148;51.912;15.570;2022-12-18T23:37:49;103178.97;;;-5.06;85.14
76331;BME280;65148;51.912;15.570;2022-12-18T23:53:17;103153.39;;;-5.19;85.47
